sensor_id;sensor_type;location;lat;lon;timestamp;temperature;humidity
22968;DHT22;11650;48.106;-1.696;2023-07-02T00:02:23;15.20;99.90
22968;DHT22;11650;48.106;-1.696;2023-07-02T00:04:49;15.10;99.90
22968;DHT22;11650;48.106;-1.696;2023-07-02T00:07:15;15.10;99.90
22968;DHT22;11650;48.106;-1.696;2023-07-02T00:09:40;15.00;99.90
22968;DHT22;11650;48.106;-1.696;2023-07-02T00:12:07;15.00;99.90
22968;DHT22;11650;48.106;-1.696;2023-07-02T00:14:33;14.90;99.90
22968;DHT22;11650;48.106;-1.696;2023-07-02T00:16:59;14.90;99.90
22968;DHT22;11650;48.106;-1.696;2023-07-02T00:19:25;14.90;99.90
22968;DHT22;11650;48.106;-1.696;2023-07-02T00:21:51;15.00;99.90
22968;DHT22;11650;48.106;-1.696;2023-07-02T00:24:19;14.90;99.90
22968;DHT22;11650;48.106;-1.696;2023-07-02T00:26:44;14.90;99.90
22968;DHT22;11650;48.106;-1.696;2023-07-02T00:29:10;14.90;99.90
22968;DHT22;11650;48.106;-1.696;2023-07-02T00:31:36;14.90;99.90
22968;DHT22;11650;48.106;-1.696;2023-07-02T00:34:03;14.80;99.90
22968;DHT22;11650;48.106;-1.696;2023-07-02T00:36:29;14.80;99.90
22968;DHT22;11650;48.106;-1.696;2023-07-02T00:38:56;14.80;99.90
22968;DHT22;11650;48.106;-1.696;2023-07-02T00:41:22;14.80;99.90
22968;DHT22;11650;48.106;-1.696;2023-07-02T00:43:48;14.80;99.90
22968;DHT22;11650;48.106;-1.696;2023-07-02T00:46:15;14.90;99.90
22968;DHT22;11650;48.106;-1.696;2023-07-02T00:48:52;14.80;99.90
22968;DHT22;11650;48.106;-1.696;2023-07-02T00:51:23;14.80;99.90
22968;DHT22;11650;48.106;-1.696;2023-07-02T00:53:51;14.70;99.90
22968;DHT22;11650;48.106;-1.696;2023-07-02T00:56:17;14.70;99.90
22968;DHT22;11650;48.106;-1.696;2023-07-02T00:58:47;14.70;99.90
22968;DHT22;11650;48.106;-1.696;2023-07-02T01:01:26;14.60;99.90
22968;DHT22;11650;48.106;-1.696;2023-07-02T01:03:56;14.60;99.90
22968;DHT22;11650;48.106;-1.696;2023-07-02T01:06:23;14.50;99.90
22968;DHT22;11650;48.106;-1.696;2023-07-02T01:08:54;14.50;99.90
22968;DHT22;11650;48.106;-1.696;2023-07-02T01:11:23;14.50;99.90
22968;DHT22;11650;48.106;-1.696;2023-07-02T01:13:52;14.40;99.90
22968;DHT22;11650;48.106;-1.696;2023-07-02T01:16:19;14.40;99.90
22968;DHT22;11650;48.106;-1.696;2023-07-02T01:18:45;14.40;99.90
22968;DHT22;11650;48.106;-1.696;2023-07-02T01:21:11;14.40;99.90
22968;DHT22;11650;48.106;-1.696;2023-07-02T01:23:37;14.30;99.90
22968;DHT22;11650;48.106;-1.696;2023-07-02T01:26:03;14.30;99.90
22968;DHT22;11650;48.106;-1.696;2023-07-02T01:28:35;14.30;99.90
22968;DHT22;11650;48.106;-1.696;2023-07-02T01:31:03;14.20;99.90
22968;DHT22;11650;48.106;-1.696;2023-07-02T01:33:29;14.30;99.90
22968;DHT22;11650;48.106;-1.696;2023-07-02T01:35:55;14.20;99.90
22968;DHT22;11650;48.106;-1.696;2023-07-02T01:38:20;14.20;99.90
22968;DHT22;11650;48.106;-1.696;2023-07-02T01:40:47;14.10;99.90
22968;DHT22;11650;48.106;-1.696;2023-07-02T01:43:13;14.10;99.90
22968;DHT22;11650;48.106;-1.696;2023-07-02T01:45:40;14.00;99.90
22968;DHT22;11650;48.106;-1.696;2023-07-02T01:48:06;14.00;99.90
22968;DHT22;11650;48.106;-1.696;2023-07-02T01:50:32;14.00;99.90
22968;DHT22;11650;48.106;-1.696;2023-07-02T01:52:57;13.90;99.90
22968;DHT22;11650;48.106;-1.696;2023-07-02T01:55:23;13.90;99.90
22968;DHT22;11650;48.106;-1.696;2023-07-02T01:57:48;13.80;99.90
22968;DHT22;11650;48.106;-1.696;2023-07-02T02:00:14;13.80;99.90
22968;DHT22;11650;48.106;-1.696;2023-07-02T02:02:42;13.80;99.90
22968;DHT22;11650;48.106;-1.696;2023-07-02T02:05:07;13.70;99.90
22968;DHT22;11650;48.106;-1.696;2023-07-02T02:07:34;13.70;99.90
22968;DHT22;11650;48.106;-1.696;2023-07-02T02:10:01;13.60;99.90
22968;DHT22;11650;48.106;-1.696;2023-07-02T02:12:27;13.60;99.90
22968;DHT22;11650;48.106;-1.696;2023-07-02T02:14:54;13.60;99.90
22968;DHT22;11650;48.106;-1.696;2023-07-02T02:17:19;13.70;99.90
22968;DHT22;11650;48.106;-1.696;2023-07-02T02:19:45;13.70;99.90
22968;DHT22;11650;48.106;-1.696;2023-07-02T02:22:11;13.60;99.90
22968;DHT22;11650;48.106;-1.696;2023-07-02T02:24:36;13.50;99.90
22968;DHT22;11650;48.106;-1.696;2023-07-02T02:27:02;13.50;99.90
22968;DHT22;11650;48.106;-1.696;2023-07-02T02:29:28;13.50;99.90
22968;DHT22;11650;48.106;-1.696;2023-07-02T02:31:53;13.50;99.90
22968;DHT22;11650;48.106;-1.696;2023-07-02T02:34:19;13.60;99.90
22968;DHT22;11650;48.106;-1.696;2023-07-02T02:36:44;13.50;99.90
22968;DHT22;11650;48.106;-1.696;2023-07-02T02:39:12;13.50;99.90
22968;DHT22;11650;48.106;-1.696;2023-07-02T02:41:37;13.50;99.90
22968;DHT22;11650;48.106;-1.696;2023-07-02T02:44:03;13.50;99.90
22968;DHT22;11650;48.106;-1.696;2023-07-02T02:46:29;13.60;99.90
22968;DHT22;11650;48.106;-1.696;2023-07-02T02:48:54;13.50;99.90
22968;DHT22;11650;48.106;-1.696;2023-07-02T02:51:20;13.50;99.90
22968;DHT22;11650;48.106;-1.696;2023-07-02T02:53:46;13.50;99.90
22968;DHT22;11650;48.106;-1.696;2023-07-02T02:56:11;13.40;99.90
22968;DHT22;11650;48.106;-1.696;2023-07-02T02:58:37;13.30;99.90
22968;DHT22;11650;48.106;-1.696;2023-07-02T03:01:03;13.40;99.90
22968;DHT22;11650;48.106;-1.696;2023-07-02T03:03:38;13.50;99.90
22968;DHT22;11650;48.106;-1.696;2023-07-02T03:06:05;13.50;99.90
22968;DHT22;11650;48.106;-1.696;2023-07-02T03:08:30;13.50;99.90
22968;DHT22;11650;48.106;-1.696;2023-07-02T03:10:57;13.50;99.90
22968;DHT22;11650;48.106;-1.696;2023-07-02T03:13:22;13.50;99.90
22968;DHT22;11650;48.106;-1.696;2023-07-02T03:15:48;13.60;99.90
22968;DHT22;11650;48.106;-1.696;2023-07-02T03:18:13;13.60;99.90
22968;DHT22;11650;48.106;-1.696;2023-07-02T03:20:39;13.50;99.90
22968;DHT22;11650;48.106;-1.696;2023-07-02T03:23:04;13.60;99.90
22968;DHT22;11650;48.106;-1.696;2023-07-02T03:25:30;13.60;99.90
22968;DHT22;11650;48.106;-1.696;2023-07-02T03:27:56;13.50;99.90
22968;DHT22;11650;48.106;-1.696;2023-07-02T03:30:22;13.60;99.90
22968;DHT22;11650;48.106;-1.696;2023-07-02T03:32:47;13.60;99.90
22968;DHT22;11650;48.106;-1.696;2023-07-02T03:35:13;13.70;99.90
22968;DHT22;11650;48.106;-1.696;2023-07-02T03:37:39;13.60;99.90
22968;DHT22;11650;48.106;-1.696;2023-07-02T03:40:07;13.60;99.90
22968;DHT22;11650;48.106;-1.696;2023-07-02T03:42:33;13.70;99.90
22968;DHT22;11650;48.106;-1.696;2023-07-02T03:44:59;13.70;99.90
22968;DHT22;11650;48.106;-1.696;2023-07-02T03:47:25;13.70;99.90
22968;DHT22;11650;48.106;-1.696;2023-07-02T03:49:50;13.80;99.90
22968;DHT22;11650;48.106;-1.696;2023-07-02T03:52:16;13.80;99.90
22968;DHT22;11650;48.106;-1.696;2023-07-02T03:54:42;13.80;99.90
22968;DHT22;11650;48.106;-1.696;2023-07-02T03:57:07;13.80;99.90
22968;DHT22;11650;48.106;-1.696;2023-07-02T03:59:34;13.80;99.90
22968;DHT22;11650;48.106;-1.696;2023-07-02T04:02:00;13.80;99.90
22968;DHT22;11650;48.106;-1.696;2023-07-02T04:04:25;13.80;99.90
22968;DHT22;11650;48.106;-1.696;2023-07-02T04:06:51;13.80;99.90
22968;DHT22;11650;48.106;-1.696;2023-07-02T04:09:16;13.80;99.90
22968;DHT22;11650;48.106;-1.696;2023-07-02T04:11:43;13.90;99.90
22968;DHT22;11650;48.106;-1.696;2023-07-02T04:14:09;13.90;99.90
22968;DHT22;11650;48.106;-1.696;2023-07-02T04:16:35;13.90;99.90
22968;DHT22;11650;48.106;-1.696;2023-07-02T04:19:00;13.80;99.90
22968;DHT22;11650;48.106;-1.696;2023-07-02T04:21:26;13.80;99.90
22968;DHT22;11650;48.106;-1.696;2023-07-02T04:23:51;13.80;99.90
22968;DHT22;11650;48.106;-1.696;2023-07-02T04:26:17;13.80;99.90
22968;DHT22;11650;48.106;-1.696;2023-07-02T04:28:43;13.70;99.90
22968;DHT22;11650;48.106;-1.696;2023-07-02T04:31:09;13.70;99.90
22968;DHT22;11650;48.106;-1.696;2023-07-02T04:33:34;13.70;99.90
22968;DHT22;11650;48.106;-1.696;2023-07-02T04:36:04;13.70;99.90
22968;DHT22;11650;48.106;-1.696;2023-07-02T04:38:30;13.60;99.90
22968;DHT22;11650;48.106;-1.696;2023-07-02T04:40:55;13.70;99.90
22968;DHT22;11650;48.106;-1.696;2023-07-02T04:43:27;13.70;99.90
22968;DHT22;11650;48.106;-1.696;2023-07-02T04:45:55;13.70;99.90
22968;DHT22;11650;48.106;-1.696;2023-07-02T04:48:21;13.70;99.90
22968;DHT22;11650;48.106;-1.696;2023-07-02T04:50:46;13.80;99.90
22968;DHT22;11650;48.106;-1.696;2023-07-02T04:53:12;13.80;99.90
22968;DHT22;11650;48.106;-1.696;2023-07-02T04:55:38;13.80;99.90
22968;DHT22;11650;48.106;-1.696;2023-07-02T04:58:03;13.80;99.90
22968;DHT22;11650;48.106;-1.696;2023-07-02T05:00:29;13.80;99.90
22968;DHT22;11650;48.106;-1.696;2023-07-02T05:02:54;13.90;99.90
22968;DHT22;11650;48.106;-1.696;2023-07-02T05:05:20;13.90;99.90
22968;DHT22;11650;48.106;-1.696;2023-07-02T05:07:46;13.90;99.90
22968;DHT22;11650;48.106;-1.696;2023-07-02T05:10:11;13.90;99.90
22968;DHT22;11650;48.106;-1.696;2023-07-02T05:12:37;13.90;99.90
22968;DHT22;11650;48.106;-1.696;2023-07-02T05:15:03;14.00;99.90
22968;DHT22;11650;48.106;-1.696;2023-07-02T05:17:29;14.00;99.90
22968;DHT22;11650;48.106;-1.696;2023-07-02T05:19:54;14.00;99.90
22968;DHT22;11650;48.106;-1.696;2023-07-02T05:22:20;14.10;99.90
22968;DHT22;11650;48.106;-1.696;2023-07-02T05:24:46;14.10;99.90
22968;DHT22;11650;48.106;-1.696;2023-07-02T05:27:12;14.20;99.90
22968;DHT22;11650;48.106;-1.696;2023-07-02T05:29:38;14.30;99.90
22968;DHT22;11650;48.106;-1.696;2023-07-02T05:32:04;14.40;99.90
22968;DHT22;11650;48.106;-1.696;2023-07-02T05:34:29;14.40;99.90
22968;DHT22;11650;48.106;-1.696;2023-07-02T05:36:55;14.40;99.90
22968;DHT22;11650;48.106;-1.696;2023-07-02T05:39:20;14.50;99.90
22968;DHT22;11650;48.106;-1.696;2023-07-02T05:41:47;14.60;99.90
22968;DHT22;11650;48.106;-1.696;2023-07-02T05:44:12;14.70;99.90
22968;DHT22;11650;48.106;-1.696;2023-07-02T05:46:38;14.70;99.90
22968;DHT22;11650;48.106;-1.696;2023-07-02T05:49:04;14.70;99.90
22968;DHT22;11650;48.106;-1.696;2023-07-02T05:51:31;14.80;99.90
22968;DHT22;11650;48.106;-1.696;2023-07-02T05:53:57;14.90;99.90
22968;DHT22;11650;48.106;-1.696;2023-07-02T05:56:23;15.00;99.90
22968;DHT22;11650;48.106;-1.696;2023-07-02T05:58:49;15.00;99.90
22968;DHT22;11650;48.106;-1.696;2023-07-02T06:01:17;15.00;99.90
22968;DHT22;11650;48.106;-1.696;2023-07-02T06:03:43;15.10;99.90
22968;DHT22;11650;48.106;-1.696;2023-07-02T06:06:11;15.20;99.90
22968;DHT22;11650;48.106;-1.696;2023-07-02T06:08:37;15.20;99.90
22968;DHT22;11650;48.106;-1.696;2023-07-02T06:11:02;15.40;99.90
22968;DHT22;11650;48.106;-1.696;2023-07-02T06:13:28;15.40;99.90
22968;DHT22;11650;48.106;-1.696;2023-07-02T06:15:54;15.40;99.90
22968;DHT22;11650;48.106;-1.696;2023-07-02T06:18:19;15.30;99.90
22968;DHT22;11650;48.106;-1.696;2023-07-02T06:20:46;15.50;99.90
22968;DHT22;11650;48.106;-1.696;2023-07-02T06:23:12;15.60;99.90
22968;DHT22;11650;48.106;-1.696;2023-07-02T06:25:37;15.50;99.90
22968;DHT22;11650;48.106;-1.696;2023-07-02T06:28:03;15.60;99.90
22968;DHT22;11650;48.106;-1.696;2023-07-02T06:30:29;15.60;99.90
22968;DHT22;11650;48.106;-1.696;2023-07-02T06:32:55;15.80;99.90
22968;DHT22;11650;48.106;-1.696;2023-07-02T06:35:21;15.80;99.90
22968;DHT22;11650;48.106;-1.696;2023-07-02T06:37:46;15.90;99.90
22968;DHT22;11650;48.106;-1.696;2023-07-02T06:40:12;16.00;99.90
22968;DHT22;11650;48.106;-1.696;2023-07-02T06:42:38;16.00;99.90
22968;DHT22;11650;48.106;-1.696;2023-07-02T06:45:05;16.10;99.90
22968;DHT22;11650;48.106;-1.696;2023-07-02T06:47:31;16.10;99.90
22968;DHT22;11650;48.106;-1.696;2023-07-02T06:49:57;16.30;99.90
22968;DHT22;11650;48.106;-1.696;2023-07-02T06:52:23;16.20;99.90
22968;DHT22;11650;48.106;-1.696;2023-07-02T06:54:50;16.20;99.90
22968;DHT22;11650;48.106;-1.696;2023-07-02T06:57:15;16.40;99.90
22968;DHT22;11650;48.106;-1.696;2023-07-02T06:59:41;16.40;99.90
22968;DHT22;11650;48.106;-1.696;2023-07-02T07:02:06;16.50;99.90
22968;DHT22;11650;48.106;-1.696;2023-07-02T07:04:32;16.50;99.90
22968;DHT22;11650;48.106;-1.696;2023-07-02T07:07:00;16.60;99.90
22968;DHT22;11650;48.106;-1.696;2023-07-02T07:09:28;16.60;99.90
22968;DHT22;11650;48.106;-1.696;2023-07-02T07:11:54;16.60;99.90
22968;DHT22;11650;48.106;-1.696;2023-07-02T07:14:19;16.60;99.90
22968;DHT22;11650;48.106;-1.696;2023-07-02T07:16:45;16.70;99.90
22968;DHT22;11650;48.106;-1.696;2023-07-02T07:19:11;16.80;99.90
22968;DHT22;11650;48.106;-1.696;2023-07-02T07:21:36;16.80;99.90
22968;DHT22;11650;48.106;-1.696;2023-07-02T07:24:02;16.90;99.90
22968;DHT22;11650;48.106;-1.696;2023-07-02T07:26:28;17.00;99.90
22968;DHT22;11650;48.106;-1.696;2023-07-02T07:28:55;17.00;99.90
22968;DHT22;11650;48.106;-1.696;2023-07-02T07:31:23;17.00;99.90
22968;DHT22;11650;48.106;-1.696;2023-07-02T07:33:49;17.00;99.90
22968;DHT22;11650;48.106;-1.696;2023-07-02T07:36:14;17.10;99.90
22968;DHT22;11650;48.106;-1.696;2023-07-02T07:38:40;17.10;99.90
22968;DHT22;11650;48.106;-1.696;2023-07-02T07:41:05;17.10;99.90
22968;DHT22;11650;48.106;-1.696;2023-07-02T07:43:31;17.30;99.90
22968;DHT22;11650;48.106;-1.696;2023-07-02T07:45:57;17.40;99.90
22968;DHT22;11650;48.106;-1.696;2023-07-02T07:48:23;17.50;99.90
22968;DHT22;11650;48.106;-1.696;2023-07-02T07:50:49;17.70;99.90
22968;DHT22;11650;48.106;-1.696;2023-07-02T07:53:15;17.70;99.90
22968;DHT22;11650;48.106;-1.696;2023-07-02T07:55:40;17.80;99.90
22968;DHT22;11650;48.106;-1.696;2023-07-02T07:58:06;18.00;99.90
22968;DHT22;11650;48.106;-1.696;2023-07-02T08:00:32;17.80;99.90
22968;DHT22;11650;48.106;-1.696;2023-07-02T08:02:57;17.80;99.90
22968;DHT22;11650;48.106;-1.696;2023-07-02T08:05:25;18.10;99.90
22968;DHT22;11650;48.106;-1.696;2023-07-02T08:07:50;18.00;99.90
22968;DHT22;11650;48.106;-1.696;2023-07-02T08:10:16;18.10;99.90
22968;DHT22;11650;48.106;-1.696;2023-07-02T08:12:42;18.10;99.90
22968;DHT22;11650;48.106;-1.696;2023-07-02T08:15:08;18.10;99.90
22968;DHT22;11650;48.106;-1.696;2023-07-02T08:17:33;18.20;99.90
22968;DHT22;11650;48.106;-1.696;2023-07-02T08:19:59;18.20;99.90
22968;DHT22;11650;48.106;-1.696;2023-07-02T08:22:25;18.20;99.90
22968;DHT22;11650;48.106;-1.696;2023-07-02T08:24:51;18.30;99.90
22968;DHT22;11650;48.106;-1.696;2023-07-02T08:27:17;18.40;99.90
22968;DHT22;11650;48.106;-1.696;2023-07-02T08:29:46;18.40;99.90
22968;DHT22;11650;48.106;-1.696;2023-07-02T08:32:12;18.40;99.90
22968;DHT22;11650;48.106;-1.696;2023-07-02T08:34:38;18.90;99.90
22968;DHT22;11650;48.106;-1.696;2023-07-02T08:37:03;19.10;99.90
22968;DHT22;11650;48.106;-1.696;2023-07-02T08:39:29;19.50;99.90
22968;DHT22;11650;48.106;-1.696;2023-07-02T08:41:55;19.50;99.90
22968;DHT22;11650;48.106;-1.696;2023-07-02T08:44:21;19.50;99.90
22968;DHT22;11650;48.106;-1.696;2023-07-02T08:46:47;19.50;99.90
22968;DHT22;11650;48.106;-1.696;2023-07-02T08:49:16;19.50;99.90
22968;DHT22;11650;48.106;-1.696;2023-07-02T08:51:44;19.20;99.90
22968;DHT22;11650;48.106;-1.696;2023-07-02T08:54:10;19.00;99.90
22968;DHT22;11650;48.106;-1.696;2023-07-02T08:56:35;18.80;99.90
22968;DHT22;11650;48.106;-1.696;2023-07-02T08:59:01;18.80;99.90
22968;DHT22;11650;48.106;-1.696;2023-07-02T09:01:26;19.00;99.90
22968;DHT22;11650;48.106;-1.696;2023-07-02T09:03:58;19.10;99.90
22968;DHT22;11650;48.106;-1.696;2023-07-02T09:06:25;18.80;99.90
22968;DHT22;11650;48.106;-1.696;2023-07-02T09:08:51;18.70;99.90
22968;DHT22;11650;48.106;-1.696;2023-07-02T09:11:16;18.50;99.90
22968;DHT22;11650;48.106;-1.696;2023-07-02T09:13:49;18.80;99.90
22968;DHT22;11650;48.106;-1.696;2023-07-02T09:19:04;19.60;99.90
22968;DHT22;11650;48.106;-1.696;2023-07-02T09:21:47;20.40;99.90
22968;DHT22;11650;48.106;-1.696;2023-07-02T09:24:23;20.70;99.90
22968;DHT22;11650;48.106;-1.696;2023-07-02T09:26:51;20.60;99.90
22968;DHT22;11650;48.106;-1.696;2023-07-02T09:29:37;20.40;99.90
22968;DHT22;11650;48.106;-1.696;2023-07-02T09:32:05;20.30;99.90
22968;DHT22;11650;48.106;-1.696;2023-07-02T09:34:36;20.20;99.90
22968;DHT22;11650;48.106;-1.696;2023-07-02T09:37:02;19.80;99.90
22968;DHT22;11650;48.106;-1.696;2023-07-02T09:39:32;19.60;99.90
22968;DHT22;11650;48.106;-1.696;2023-07-02T09:42:00;19.40;99.90
22968;DHT22;11650;48.106;-1.696;2023-07-02T09:44:30;19.30;99.90
22968;DHT22;11650;48.106;-1.696;2023-07-02T09:47:03;19.30;99.90
22968;DHT22;11650;48.106;-1.696;2023-07-02T09:49:37;19.30;99.90
22968;DHT22;11650;48.106;-1.696;2023-07-02T09:52:08;19.50;99.90
22968;DHT22;11650;48.106;-1.696;2023-07-02T09:54:34;19.30;99.90
22968;DHT22;11650;48.106;-1.696;2023-07-02T09:57:01;20.00;99.90
22968;DHT22;11650;48.106;-1.696;2023-07-02T09:59:27;20.30;99.90
22968;DHT22;11650;48.106;-1.696;2023-07-02T10:01:53;20.30;99.90
22968;DHT22;11650;48.106;-1.696;2023-07-02T10:04:20;20.20;99.90
22968;DHT22;11650;48.106;-1.696;2023-07-02T10:06:53;20.50;99.90
22968;DHT22;11650;48.106;-1.696;2023-07-02T10:09:20;20.60;99.90
22968;DHT22;11650;48.106;-1.696;2023-07-02T10:11:46;20.70;99.90
22968;DHT22;11650;48.106;-1.696;2023-07-02T10:14:12;20.50;99.90
22968;DHT22;11650;48.106;-1.696;2023-07-02T10:16:55;20.40;99.90
22968;DHT22;11650;48.106;-1.696;2023-07-02T10:19:21;20.30;99.90
22968;DHT22;11650;48.106;-1.696;2023-07-02T10:22:00;20.50;99.90
22968;DHT22;11650;48.106;-1.696;2023-07-02T10:24:25;20.40;99.90
22968;DHT22;11650;48.106;-1.696;2023-07-02T10:26:57;20.70;99.90
22968;DHT22;11650;48.106;-1.696;2023-07-02T10:29:24;20.90;99.90
22968;DHT22;11650;48.106;-1.696;2023-07-02T10:31:54;20.70;99.90
22968;DHT22;11650;48.106;-1.696;2023-07-02T10:34:34;20.60;99.90
22968;DHT22;11650;48.106;-1.696;2023-07-02T10:37:01;21.10;99.90
22968;DHT22;11650;48.106;-1.696;2023-07-02T10:39:28;21.30;99.90
22968;DHT22;11650;48.106;-1.696;2023-07-02T10:42:07;21.50;99.90
22968;DHT22;11650;48.106;-1.696;2023-07-02T10:44:33;21.70;99.90
22968;DHT22;11650;48.106;-1.696;2023-07-02T10:46:59;21.60;99.90
22968;DHT22;11650;48.106;-1.696;2023-07-02T10:49:32;21.70;99.90
22968;DHT22;11650;48.106;-1.696;2023-07-02T10:52:02;22.20;99.90
22968;DHT22;11650;48.106;-1.696;2023-07-02T10:54:46;22.40;99.90
22968;DHT22;11650;48.106;-1.696;2023-07-02T10:57:17;21.70;99.90
22968;DHT22;11650;48.106;-1.696;2023-07-02T10:59:46;21.80;99.90
22968;DHT22;11650;48.106;-1.696;2023-07-02T11:02:11;21.80;99.90
22968;DHT22;11650;48.106;-1.696;2023-07-02T11:04:37;21.80;99.90
22968;DHT22;11650;48.106;-1.696;2023-07-02T11:07:04;21.80;99.90
22968;DHT22;11650;48.106;-1.696;2023-07-02T11:09:29;21.60;99.90
22968;DHT22;11650;48.106;-1.696;2023-07-02T11:12:00;21.60;99.90
22968;DHT22;11650;48.106;-1.696;2023-07-02T11:14:31;21.60;99.90
22968;DHT22;11650;48.106;-1.696;2023-07-02T11:16:58;21.70;99.90
22968;DHT22;11650;48.106;-1.696;2023-07-02T11:19:24;22.10;99.90
22968;DHT22;11650;48.106;-1.696;2023-07-02T11:21:54;21.80;99.90
22968;DHT22;11650;48.106;-1.696;2023-07-02T11:24:29;21.60;99.90
22968;DHT22;11650;48.106;-1.696;2023-07-02T11:26:55;21.30;99.90
22968;DHT22;11650;48.106;-1.696;2023-07-02T11:29:21;21.20;99.90
22968;DHT22;11650;48.106;-1.696;2023-07-02T11:31:47;21.30;99.90
22968;DHT22;11650;48.106;-1.696;2023-07-02T11:34:14;21.20;99.90
22968;DHT22;11650;48.106;-1.696;2023-07-02T11:36:40;21.50;99.90
22968;DHT22;11650;48.106;-1.696;2023-07-02T11:39:06;21.80;99.90
22968;DHT22;11650;48.106;-1.696;2023-07-02T11:41:44;21.60;99.90
22968;DHT22;11650;48.106;-1.696;2023-07-02T11:44:11;21.40;99.90
22968;DHT22;11650;48.106;-1.696;2023-07-02T11:46:36;21.30;99.90
22968;DHT22;11650;48.106;-1.696;2023-07-02T11:49:03;21.20;99.90
22968;DHT22;11650;48.106;-1.696;2023-07-02T11:51:35;21.20;99.90
22968;DHT22;11650;48.106;-1.696;2023-07-02T11:54:02;21.00;99.90
22968;DHT22;11650;48.106;-1.696;2023-07-02T11:56:28;21.00;99.90
22968;DHT22;11650;48.106;-1.696;2023-07-02T11:58:54;20.90;99.90
22968;DHT22;11650;48.106;-1.696;2023-07-02T12:01:19;20.70;99.90
22968;DHT22;11650;48.106;-1.696;2023-07-02T12:03:45;21.00;99.90
22968;DHT22;11650;48.106;-1.696;2023-07-02T12:06:11;21.00;99.90
22968;DHT22;11650;48.106;-1.696;2023-07-02T12:08:36;21.10;99.90
22968;DHT22;11650;48.106;-1.696;2023-07-02T12:11:02;21.10;99.90
22968;DHT22;11650;48.106;-1.696;2023-07-02T12:13:28;20.90;99.90
22968;DHT22;11650;48.106;-1.696;2023-07-02T12:15:53;20.90;99.90
22968;DHT22;11650;48.106;-1.696;2023-07-02T12:18:19;21.00;99.90
22968;DHT22;11650;48.106;-1.696;2023-07-02T12:20:45;21.10;99.90
22968;DHT22;11650;48.106;-1.696;2023-07-02T12:23:10;21.30;99.90
22968;DHT22;11650;48.106;-1.696;2023-07-02T12:25:37;21.10;99.90
22968;DHT22;11650;48.106;-1.696;2023-07-02T12:28:03;21.10;99.90
22968;DHT22;11650;48.106;-1.696;2023-07-02T12:30:30;21.00;99.90
22968;DHT22;11650;48.106;-1.696;2023-07-02T12:32:55;20.70;99.90
22968;DHT22;11650;48.106;-1.696;2023-07-02T12:35:21;20.60;99.90
22968;DHT22;11650;48.106;-1.696;2023-07-02T12:37:49;20.70;99.90
22968;DHT22;11650;48.106;-1.696;2023-07-02T12:40:15;20.80;99.90
22968;DHT22;11650;48.106;-1.696;2023-07-02T12:42:42;20.70;99.90
22968;DHT22;11650;48.106;-1.696;2023-07-02T12:45:09;20.80;99.90
22968;DHT22;11650;48.106;-1.696;2023-07-02T12:47:35;20.90;99.90
22968;DHT22;11650;48.106;-1.696;2023-07-02T12:50:01;21.30;99.90
22968;DHT22;11650;48.106;-1.696;2023-07-02T12:52:28;21.60;99.90
22968;DHT22;11650;48.106;-1.696;2023-07-02T12:54:54;21.50;99.90
22968;DHT22;11650;48.106;-1.696;2023-07-02T12:57:19;21.50;99.90
22968;DHT22;11650;48.106;-1.696;2023-07-02T12:59:45;21.20;99.90
22968;DHT22;11650;48.106;-1.696;2023-07-02T13:02:11;21.30;99.90
22968;DHT22;11650;48.106;-1.696;2023-07-02T13:04:37;21.60;99.90
22968;DHT22;11650;48.106;-1.696;2023-07-02T13:07:03;21.50;99.90
22968;DHT22;11650;48.106;-1.696;2023-07-02T13:09:29;21.40;99.90
22968;DHT22;11650;48.106;-1.696;2023-07-02T13:11:55;21.80;99.90
22968;DHT22;11650;48.106;-1.696;2023-07-02T13:14:20;21.60;99.90
22968;DHT22;11650;48.106;-1.696;2023-07-02T13:16:46;21.80;99.90
22968;DHT22;11650;48.106;-1.696;2023-07-02T13:19:12;22.00;99.90
22968;DHT22;11650;48.106;-1.696;2023-07-02T13:21:38;22.20;99.90
22968;DHT22;11650;48.106;-1.696;2023-07-02T13:24:04;22.30;99.90
22968;DHT22;11650;48.106;-1.696;2023-07-02T13:26:30;22.20;99.90
22968;DHT22;11650;48.106;-1.696;2023-07-02T13:28:55;22.00;99.90
22968;DHT22;11650;48.106;-1.696;2023-07-02T13:31:21;21.60;99.90
22968;DHT22;11650;48.106;-1.696;2023-07-02T13:33:47;21.70;99.90
22968;DHT22;11650;48.106;-1.696;2023-07-02T13:36:13;21.40;99.90
22968;DHT22;11650;48.106;-1.696;2023-07-02T13:38:39;21.50;99.90
22968;DHT22;11650;48.106;-1.696;2023-07-02T13:41:05;21.50;99.90
22968;DHT22;11650;48.106;-1.696;2023-07-02T13:43:30;21.40;99.90
22968;DHT22;11650;48.106;-1.696;2023-07-02T13:45:56;21.40;99.90
22968;DHT22;11650;48.106;-1.696;2023-07-02T13:48:22;21.30;99.90
22968;DHT22;11650;48.106;-1.696;2023-07-02T13:50:48;21.20;99.90
22968;DHT22;11650;48.106;-1.696;2023-07-02T13:53:13;21.20;99.90
22968;DHT22;11650;48.106;-1.696;2023-07-02T13:55:39;21.20;99.90
22968;DHT22;11650;48.106;-1.696;2023-07-02T13:58:04;21.30;99.90
22968;DHT22;11650;48.106;-1.696;2023-07-02T14:00:30;21.20;99.90
22968;DHT22;11650;48.106;-1.696;2023-07-02T14:02:56;21.20;99.90
22968;DHT22;11650;48.106;-1.696;2023-07-02T14:05:22;21.30;99.90
22968;DHT22;11650;48.106;-1.696;2023-07-02T14:07:47;21.30;99.90
22968;DHT22;11650;48.106;-1.696;2023-07-02T14:10:14;21.40;99.90
22968;DHT22;11650;48.106;-1.696;2023-07-02T14:12:41;21.40;99.90
22968;DHT22;11650;48.106;-1.696;2023-07-02T14:15:07;21.60;99.90
22968;DHT22;11650;48.106;-1.696;2023-07-02T14:17:33;21.70;99.90
22968;DHT22;11650;48.106;-1.696;2023-07-02T14:19:59;21.50;99.90
22968;DHT22;11650;48.106;-1.696;2023-07-02T14:22:24;21.50;99.90
22968;DHT22;11650;48.106;-1.696;2023-07-02T14:24:50;21.60;99.90
22968;DHT22;11650;48.106;-1.696;2023-07-02T14:27:16;21.50;99.90
22968;DHT22;11650;48.106;-1.696;2023-07-02T14:29:42;21.40;99.90
22968;DHT22;11650;48.106;-1.696;2023-07-02T14:32:07;21.40;99.90
22968;DHT22;11650;48.106;-1.696;2023-07-02T14:34:33;21.30;99.90
22968;DHT22;11650;48.106;-1.696;2023-07-02T14:36:59;21.10;99.90
22968;DHT22;11650;48.106;-1.696;2023-07-02T14:39:25;20.80;99.90
22968;DHT22;11650;48.106;-1.696;2023-07-02T14:41:51;20.70;99.90
22968;DHT22;11650;48.106;-1.696;2023-07-02T14:44:16;20.70;99.90
22968;DHT22;11650;48.106;-1.696;2023-07-02T14:46:43;20.60;99.90
22968;DHT22;11650;48.106;-1.696;2023-07-02T14:49:09;20.70;99.90
22968;DHT22;11650;48.106;-1.696;2023-07-02T14:51:34;20.80;99.90
22968;DHT22;11650;48.106;-1.696;2023-07-02T14:54:00;20.70;99.90
22968;DHT22;11650;48.106;-1.696;2023-07-02T14:56:29;20.60;99.90
22968;DHT22;11650;48.106;-1.696;2023-07-02T14:58:55;20.60;99.90
22968;DHT22;11650;48.106;-1.696;2023-07-02T15:01:20;20.70;99.90
22968;DHT22;11650;48.106;-1.696;2023-07-02T15:03:46;20.60;99.90
22968;DHT22;11650;48.106;-1.696;2023-07-02T15:06:14;20.70;99.90
22968;DHT22;11650;48.106;-1.696;2023-07-02T15:08:40;20.90;99.90
22968;DHT22;11650;48.106;-1.696;2023-07-02T15:11:07;21.10;99.90
22968;DHT22;11650;48.106;-1.696;2023-07-02T15:13:33;21.00;99.90
22968;DHT22;11650;48.106;-1.696;2023-07-02T15:15:59;21.30;99.90